Airfield :
LOGIN :

Register | Disclaimer

   EN    FR    IT 

 










Legend :    VFR   Marginal VFR   IFR   Intensive IFR   Very Intensive IFR
Visi :
Ceiling :
>= 8 km
>= 3000ft
5 to 8 km
1000 to 3000 ft
1500m to 5 km
500 to 1000 ft
800 to 1500m
200 to 500 ft
< 800m
< 200 ft
Symbols :   Thunderstorms  Fog  Heavy snow  Heavy precipitations  Wind > 20 kt
SIGMETs :     Misc.  Thunderstorms  Icing  Turbulence  Mountain Waves  Volcanic Ashes






- Airport Elevation : 1197 ft
- IATA code : SPM


ETAD - Spangdahlem Ab

CURRENT METAR :
  • 240455Z 26004KT 9000 -DZ FEW011 BKN024 OVC034 03/01 A2982 RMK AO2A DZB48 SLP097 P0000 T00300012 $

EXPIRED METARs :
  • 240440Z 27003KT 9999 SCT025 BKN039 BKN070 03/01 A2982 RMK AO2A SLP097 $
  • 240425Z AUTO 28004KT 9999 FEW030 SCT041 BKN050 BKN070 03/01 A2982 RMK AO2 SLP097 $
  • 240355Z AUTO 26004KT 9999 FEW013 BKN025 OVC055 04/01 A2983 RMK AO2 SLP099 T00360010
  • 240310Z AUTO 27005KT 9999 SCT013 OVC023 02/M00 A2984 RMK AO2 CIG 013V023 OVC V BKN SLP104 $
  • 240255Z AUTO 27005KT 9999 BKN013 BKN023 OVC050 03/00 A2984 RMK AO2 BKN013 V OVC SLP103 60000 T00330000 57019 $
  • 240220Z AUTO 26005KT 9999 OVC014 03/M01 A2985 RMK AO2 SLP106 $
  • 240155Z AUTO 27006KT 9999 OVC018 03/M02 A2986 RMK AO2 RAB03E12 SLP110 P0000 T00311018 $
  • 240127Z AUTO 25005KT 9999 BKN019 OVC025 04/M01 A2986 RMK AO2 RAB03E12 CIG 018 RWY22 SLP109 $
  • 240112Z AUTO 25004KT 9999 OVC024 04/M01 A2987 RMK AO2 RAB03E12 CIG 023 RWY22 SLP113 $
  • 240055Z AUTO 25004KT 9999 OVC028 04/M01 A2987 RMK AO2 CIG 027 RWY22 SLP113 T00441012 $
  • 232355Z AUTO 24004KT 9999 BKN039 OVC048 04/M02 A2990 RMK AO2 SLP123 T00371023 10084 20028 57018 $

TAF TAF ETAD
Valid from the 24 at 04:00 until the 25 at 10:00 UTC


240400Z 2404/2510 30006KT 9999 BKN020 QNH2982INS
BECMG 2404/2405 31009KT 9999 BKN013 QNH2981INS
BECMG 2406/2407 30012G18KT 9000 -SHRA SCT015 BKN020 QNH2973INS
BECMG 2418/2419 29009KT 9999 NSW BKN025 QNH2973INS
BECMG 2420/2421 27006KT 5000 BR BKN015 QNH2975INS
BECMG 2503/2504 25006KT 5000 BR BKN010 QNH2972INS
BECMG 2507/2508 24010G15KT 9999 NSW BKN020 QNH2970INS TX08/2415Z TN00/2503Z



MET'MAP, your aeronautical weather chart ! - Copyright ORBIFLY December 2007 - Disclaimer

ORBIFLY MET'MAP TEAM :

Programming & Development : Alexandra Zaïnal
Original concept : Baudouin d'Aumeries
Technical & hardware support : Manuel Goepfert
Assistance : Marc-Olivier Méhu




SOURCES & CREDITS :

   NOAA